Lewisville, Pennsylvania
Current Conditions -  °F | °C
As of 2:51 PM on Thursday 23 Oct 2014 (Local Time) from KILG Reporting Station
Overcast Overcast  
Wind Chill: 57°   Ceiling: 3000
Heat Index: 57°   Visibility: 10mi
Dew Point: 46°   Wind: 16mph
Humidity: 67%   Direction: 330°NNW
Pressure: 29.8"   Gusts: 29mph
Location:  39.72°N, 75.88°W
Report Text: KILG 231851Z 33014G25KT 10SM BKN030 OVC035 14/08 A2980 RMK AO2 PK WND 34028/1811 SLP090 T01390078
Loading
Personal Weather Stations






























Interactive Weather Map
Tropical Storm Tracking
New forecast layout! Learn more

10-Day Weather Forecast

Advertisements
Track Severe Weather on mobile